M I D A S
Marine Information and Data Acquisition System
Tripno 1752 of the Zeeleeuw from 2009-08-21 06:43:00 to 2009-08-21 13:53:53
Back to CruiseResearch ActivitiesStationsMapUnderway DataData graphs

EquipmentUnitsComment
TimeDGPSUTC
LatitudeDGPSDM.mWGS84
LongitudeDGPSDM.mWGS84
TemperatureSBE03/SBE38deg celciusITS90
ConductivitySBE21S/mITS90
SalinitySBE21 Practical Salinity Units
ChlorophylAChelsea fluorimeterg/lCalibrated in Aceton
Missing or incorrect values are displayed as -999
Sea surface data collected by the RV Zeeleeuw from 2009-08-21 06:43:00 to 2009-08-21 13:53:53
Time Latitude Longitude Temperature Conductivity Salinity ChlorophylA
2009-08-21 06:45:10 51°13.688 2°55.905 -999 -999 -999 -999
2009-08-21 06:47:10 51°13.692 2°55.876 -999 -999 -999 -999
2009-08-21 06:49:10 51°13.709 2°55.73 -999 -999 -999 -999
2009-08-21 06:51:10 51°13.791 2°55.676 -999 -999 -999 -999
2009-08-21 06:53:10 51°14.032 2°55.483 -999 -999 -999 -999
2009-08-21 06:55:10 51°14.276 2°55.22 -999 -999 -999 -999
2009-08-21 06:57:10 51°14.522 2°54.86 -999 -999 -999 -999
2009-08-21 06:59:10 51°14.802 2°54.574 -999 -999 -999 -999
2009-08-21 07:01:10 51°15.083 2°54.309 -999 -999 -999 -999
2009-08-21 07:03:10 51°15.365 2°54.042 -999 -999 -999 -999
2009-08-21 07:05:10 51°15.65 2°53.764 -999 -999 -999 -999
2009-08-21 07:07:10 51°15.966 2°53.454 -999 -999 -999 -999
2009-08-21 07:09:10 51°16.284 2°53.136 -999 -999 -999 -999
2009-08-21 07:11:10 51°16.602 2°52.818 -999 -999 -999 -999
2009-08-21 07:13:10 51°16.913 2°52.53 -999 -999 -999 -999
2009-08-21 07:15:10 51°17.233 2°52.291 -999 -999 -999 -999
2009-08-21 07:17:10 51°17.57 2°52.169 -999 -999 -999 -999
2009-08-21 07:19:10 51°17.886 2°52.324 -999 -999 -999 -999
2009-08-21 07:21:10 51°18.215 2°52.456 -999 -999 -999 -999
2009-08-21 07:23:10 51°18.541 2°52.585 -999 -999 -999 -999
2009-08-21 07:25:10 51°18.865 2°52.73 -999 -999 -999 -999
2009-08-21 07:27:10 51°19.189 2°52.869 -999 -999 -999 -999
2009-08-21 07:29:10 51°19.519 2°53.003 -999 -999 -999 -999
2009-08-21 07:31:10 51°19.839 2°53.148 -999 -999 -999 -999
2009-08-21 07:33:10 51°20.157 2°53.318 -999 -999 -999 -999
2009-08-21 07:35:10 51°20.469 2°53.485 -999 -999 -999 -999
2009-08-21 07:37:10 51°20.785 2°53.654 -999 -999 -999 -999
2009-08-21 07:39:10 51°21.097 2°53.816 -999 -999 -999 -999
2009-08-21 07:41:10 51°21.411 2°53.974 -999 -999 -999 -999
2009-08-21 07:43:10 51°21.681 2°54.23 -999 -999 -999 -999
2009-08-21 07:45:10 51°21.929 2°54.557 -999 -999 -999 -999
2009-08-21 07:47:10 51°22.155 2°54.915 -999 -999 -999 -999
2009-08-21 07:49:10 51°22.438 2°55.149 -999 -999 -999 -999
2009-08-21 07:51:10 51°22.763 2°55.243 -999 -999 -999 -999
2009-08-21 07:53:10 51°23.087 2°55.352 -999 -999 -999 -999
2009-08-21 07:55:10 51°23.403 2°55.48 -999 -999 -999 -999
2009-08-21 07:57:10 51°23.723 2°55.617 -999 -999 -999 -999
2009-08-21 07:59:10 51°24.031 2°55.779 -999 -999 -999 -999
2009-08-21 08:01:10 51°24.344 2°55.939 -999 -999 -999 -999
2009-08-21 08:03:10 51°24.663 2°56.074 -999 -999 -999 -999
2009-08-21 08:05:10 51°24.987 2°56.21 -999 -999 -999 -999
2009-08-21 08:07:10 51°25.28 2°56.337 -999 -999 -999 -999
2009-08-21 08:09:10 51°25.589 2°56.483 -999 -999 -999 -999
2009-08-21 08:11:10 51°25.914 2°56.617 -999 -999 -999 -999
2009-08-21 08:13:10 51°26.232 2°56.741 -999 -999 -999 -999
2009-08-21 08:15:10 51°26.554 2°56.87 -999 -999 -999 -999
2009-08-21 08:17:10 51°26.873 2°56.982 -999 -999 -999 -999
2009-08-21 08:19:10 51°27.18 2°57.085 -999 -999 -999 -999
2009-08-21 08:21:10 51°27.503 2°57.184 -999 -999 -999 -999
2009-08-21 08:23:10 51°27.826 2°57.285 -999 -999 -999 -999
2009-08-21 08:25:10 51°28.155 2°57.393 -999 -999 -999 -999
2009-08-21 08:27:10 51°28.477 2°57.493 -999 -999 -999 -999
2009-08-21 08:29:10 51°28.795 2°57.608 -999 -999 -999 -999
2009-08-21 08:31:10 51°29.106 2°57.745 -999 -999 -999 -999
2009-08-21 08:33:10 51°29.423 2°57.876 -999 -999 -999 -999
2009-08-21 08:35:10 51°29.738 2°58.018 -999 -999 -999 -999
2009-08-21 08:37:10 51°30.057 2°58.154 -999 -999 -999 -999
2009-08-21 08:39:10 51°30.376 2°58.299 -999 -999 -999 -999
2009-08-21 08:41:10 51°30.702 2°58.445 -999 -999 -999 -999
2009-08-21 08:43:10 51°31.018 2°58.599 -999 -999 -999 -999
2009-08-21 08:45:10 51°31.324 2°58.743 -999 -999 -999 -999
2009-08-21 08:47:10 51°31.634 2°58.889 -999 -999 -999 -999
2009-08-21 08:49:10 51°31.942 2°59.034 -999 -999 -999 -999
2009-08-21 08:51:10 51°32.252 2°59.163 -999 -999 -999 -999
2009-08-21 08:53:10 51°32.58 2°59.259 -999 -999 -999 -999
2009-08-21 08:55:10 51°32.918 2°59.204 -999 -999 -999 -999
2009-08-21 08:57:10 51°33.242 2°59.05 -999 -999 -999 -999
2009-08-21 08:59:10 51°33.564 2°58.903 -999 -999 -999 -999
2009-08-21 09:01:10 51°33.893 2°58.754 -999 -999 -999 -999
2009-08-21 09:03:10 51°34.215 2°58.572 -999 -999 -999 -999
2009-08-21 09:05:10 51°34.535 2°58.386 -999 -999 -999 -999
2009-08-21 09:07:10 51°34.853 2°58.189 -999 -999 -999 -999
2009-08-21 09:09:10 51°35.171 2°57.99 -999 -999 -999 -999
2009-08-21 09:11:10 51°35.493 2°57.794 -999 -999 -999 -999
2009-08-21 09:13:10 51°35.575 2°57.237 -999 -999 -999 -999
2009-08-21 09:15:10 51°35.351 2°56.645 -999 -999 -999 -999
2009-08-21 09:17:10 51°35.099 2°56.081 -999 -999 -999 -999
2009-08-21 09:19:10 51°34.851 2°55.518 -999 -999 -999 -999
2009-08-21 09:21:10 51°34.606 2°54.951 -999 -999 -999 -999
2009-08-21 09:23:10 51°34.363 2°54.385 -999 -999 -999 -999
2009-08-21 09:25:10 51°34.117 2°53.806 -999 -999 -999 -999
2009-08-21 09:27:10 51°33.886 2°53.217 -999 -999 -999 -999
2009-08-21 09:29:10 51°33.993 2°52.704 -999 -999 -999 -999
2009-08-21 09:31:10 51°34.269 2°52.312 -999 -999 -999 -999
2009-08-21 09:33:10 51°34.547 2°51.919 -999 -999 -999 -999
2009-08-21 09:35:10 51°34.831 2°51.547 -999 -999 -999 -999
2009-08-21 09:37:10 51°35.119 2°51.189 -999 -999 -999 -999
2009-08-21 09:39:10 51°35.409 2°50.916 -999 -999 -999 -999
2009-08-21 09:41:10 51°35.624 2°51.301 -999 -999 -999 -999
2009-08-21 09:43:10 51°35.837 2°51.715 -999 -999 -999 -999
2009-08-21 09:45:10 51°36.044 2°52.124 -999 -999 -999 -999
2009-08-21 09:47:10 51°36.253 2°52.543 -999 -999 -999 -999
2009-08-21 09:49:10 51°36.46 2°52.957 -999 -999 -999 -999
2009-08-21 09:51:10 51°36.669 2°53.369 -999 -999 -999 -999
2009-08-21 09:53:10 51°36.877 2°53.784 -999 -999 -999 -999
2009-08-21 09:55:10 51°37.079 2°54.196 -999 -999 -999 -999
2009-08-21 09:57:10 51°37.351 2°54.398 -999 -999 -999 -999
2009-08-21 09:59:10 51°37.637 2°54.263 -999 -999 -999 -999
2009-08-21 10:01:10 51°37.93 2°53.947 -999 -999 -999 -999
2009-08-21 10:03:10 51°38.21 2°53.586 -999 -999 -999 -999
2009-08-21 10:05:10 51°38.485 2°53.203 -999 -999 -999 -999
2009-08-21 10:07:10 51°38.748 2°52.798 -999 -999 -999 -999
2009-08-21 10:09:10 51°39.012 2°52.396 -999 -999 -999 -999
2009-08-21 10:11:10 51°39.275 2°52.001 -999 -999 -999 -999
2009-08-21 10:13:10 51°39.543 2°51.597 -999 -999 -999 -999
2009-08-21 10:15:10 51°39.774 2°51.159 -999 -999 -999 -999
2009-08-21 10:17:10 51°39.534 2°50.701 -999 -999 -999 -999
2009-08-21 10:19:10 51°39.163 2°50.377 -999 -999 -999 -999
2009-08-21 10:21:10 51°38.793 2°50.051 -999 -999 -999 -999
2009-08-21 10:23:10 51°38.428 2°49.724 -999 -999 -999 -999
2009-08-21 10:25:10 51°38.055 2°49.397 -999 -999 -999 -999
2009-08-21 10:27:10 51°37.685 2°49.076 -999 -999 -999 -999
2009-08-21 10:29:10 51°37.318 2°48.751 -999 -999 -999 -999
2009-08-21 10:31:10 51°36.948 2°48.42 -999 -999 -999 -999
2009-08-21 10:33:10 51°36.578 2°48.09 -999 -999 -999 -999
2009-08-21 10:35:10 51°36.208 2°47.764 -999 -999 -999 -999
2009-08-21 10:37:10 51°35.841 2°47.441 -999 -999 -999 -999
2009-08-21 10:39:10 51°35.447 2°47.232 -999 -999 -999 -999
2009-08-21 10:41:10 51°35.037 2°47.215 -999 -999 -999 -999
2009-08-21 10:43:10 51°34.623 2°47.17 -999 -999 -999 -999
2009-08-21 10:45:10 51°34.213 2°47.152 -999 -999 -999 -999
2009-08-21 10:47:10 51°33.805 2°47.144 -999 -999 -999 -999
2009-08-21 10:49:10 51°33.401 2°47.138 -999 -999 -999 -999
2009-08-21 10:51:10 51°32.999 2°47.136 -999 -999 -999 -999
2009-08-21 10:53:10 51°32.599 2°47.128 -999 -999 -999 -999
2009-08-21 10:55:10 51°32.197 2°47.118 -999 -999 -999 -999
2009-08-21 10:57:10 51°31.8 2°47.152 -999 -999 -999 -999
2009-08-21 10:59:10 51°31.402 2°47.227 -999 -999 -999 -999
2009-08-21 11:01:10 51°31.105 2°47.519 -999 -999 -999 -999
2009-08-21 11:03:10 51°31.246 2°48.001 -999 -999 -999 -999
2009-08-21 11:05:10 51°31.434 2°48.49 -999 -999 -999 -999
2009-08-21 11:07:10 51°31.62 2°48.989 -999 -999 -999 -999
2009-08-21 11:09:10 51°31.802 2°49.489 -999 -999 -999 -999
2009-08-21 11:11:10 51°31.984 2°49.982 -999 -999 -999 -999
2009-08-21 11:13:10 51°32.167 2°50.483 -999 -999 -999 -999
2009-08-21 11:15:10 51°32.348 2°50.988 -999 -999 -999 -999
2009-08-21 11:17:10 51°32.532 2°51.487 -999 -999 -999 -999
2009-08-21 11:19:10 51°32.717 2°51.988 -999 -999 -999 -999
2009-08-21 11:21:10 51°32.907 2°52.503 -999 -999 -999 -999
2009-08-21 11:23:10 51°33.095 2°53.016 -999 -999 -999 -999
2009-08-21 11:25:10 51°33.285 2°53.529 -999 -999 -999 -999
2009-08-21 11:27:10 51°33.48 2°54.043 -999 -999 -999 -999
2009-08-21 11:29:10 51°33.686 2°54.546 -999 -999 -999 -999
2009-08-21 11:31:10 51°33.903 2°55.04 -999 -999 -999 -999
2009-08-21 11:33:10 51°34.125 2°55.531 -999 -999 -999 -999
2009-08-21 11:35:10 51°34.153 2°56.05 -999 -999 -999 -999
2009-08-21 11:37:10 51°33.945 2°56.587 -999 -999 -999 -999
2009-08-21 11:39:10 51°33.73 2°57.117 -999 -999 -999 -999
2009-08-21 11:41:10 51°33.512 2°57.647 -999 -999 -999 -999
2009-08-21 11:43:10 51°33.288 2°58.178 -999 -999 -999 -999
2009-08-21 11:45:10 51°33.07 2°58.724 -999 -999 -999 -999
2009-08-21 11:47:10 51°32.845 2°59.279 -999 -999 -999 -999
2009-08-21 11:49:10 51°32.516 2°59.282 -999 -999 -999 -999
2009-08-21 11:51:10 51°32.283 2°58.886 -999 -999 -999 -999
2009-08-21 11:53:10 51°32.062 2°58.478 -999 -999 -999 -999
2009-08-21 11:55:10 51°31.843 2°58.067 -999 -999 -999 -999
2009-08-21 11:57:10 51°31.62 2°57.668 -999 -999 -999 -999
2009-08-21 11:59:10 51°31.37 2°57.315 -999 -999 -999 -999
2009-08-21 13:01:10 51°24.036 2°51.436 -999 -999 -999 -999
2009-08-21 13:03:10 51°23.7 2°51.483 -999 -999 -999 -999
2009-08-21 13:05:10 51°23.364 2°51.522 -999 -999 -999 -999
2009-08-21 13:07:10 51°23.029 2°51.575 -999 -999 -999 -999
2009-08-21 13:09:10 51°22.691 2°51.643 -999 -999 -999 -999
2009-08-21 13:11:10 51°22.355 2°51.706 -999 -999 -999 -999
2009-08-21 13:13:10 51°22.031 2°51.774 -999 -999 -999 -999
2009-08-21 13:15:10 51°21.704 2°51.841 -999 -999 -999 -999
2009-08-21 13:17:10 51°21.373 2°51.899 -999 -999 -999 -999
2009-08-21 13:19:10 51°21.041 2°51.943 -999 -999 -999 -999
2009-08-21 13:21:10 51°20.705 2°51.977 -999 -999 -999 -999
2009-08-21 13:23:10 51°20.365 2°51.998 -999 -999 -999 -999
2009-08-21 13:25:10 51°20.021 2°52.013 -999 -999 -999 -999
2009-08-21 13:27:10 51°19.676 2°52.034 -999 -999 -999 -999
2009-08-21 13:29:10 51°19.338 2°52.065 -999 -999 -999 -999
2009-08-21 13:31:10 51°19.007 2°52.086 -999 -999 -999 -999
2009-08-21 13:33:10 51°18.672 2°52.12 -999 -999 -999 -999
2009-08-21 13:35:10 51°18.335 2°52.148 -999 -999 -999 -999
2009-08-21 13:37:10 51°17.999 2°52.176 -999 -999 -999 -999
2009-08-21 13:39:10 51°17.662 2°52.206 -999 -999 -999 -999
2009-08-21 13:41:10 51°17.331 2°52.322 -999 -999 -999 -999
2009-08-21 13:43:10 51°17.008 2°52.55 -999 -999 -999 -999
2009-08-21 13:45:10 51°16.685 2°52.79 -999 -999 -999 -999
2009-08-21 13:47:10 51°16.37 2°53.093 -999 -999 -999 -999
2009-08-21 13:49:10 51°16.053 2°53.394 -999 -999 -999 -999
2009-08-21 13:51:10 51°15.732 2°53.682 -999 -999 -999 -999
2009-08-21 13:53:10 51°15.407 2°53.957 -999 -999 -999 -999